Jerome, Missouri
Current Conditions -  °F | °C
As of 7:58 AM on Saturday 25 Oct 2014 (Local Time) from KTBN Reporting Station
Clear Clear  
Wind Chill: 59°   Ceiling: Unl
Heat Index: 59°   Visibility: 10mi
Dew Point: 59°   Wind: 3mph
Humidity: 100%   Direction: 250°WSW
Pressure: 30.06"   Gusts: NA
Location:  37.93°N, 91.98°W
Report Text: KTBN 251258Z AUTO 25003KT 10SM CLR 15/15 A3006 RMK AO2 SLP177 T01520152
Loading
Personal Weather Stations






























Interactive Weather Map
Tropical Storm Tracking
New forecast layout! Learn more

10-Day Weather Forecast

Advertisements
Track Severe Weather on mobile